createdAt,value
2019-04-07T00:01:51.439Z,99.90
2019-04-07T00:04:21.592Z,99.90
2019-04-07T00:06:52.110Z,99.90
2019-04-07T00:09:22.274Z,99.90
2019-04-07T00:11:52.278Z,99.90
2019-04-07T00:14:22.388Z,99.90
2019-04-07T00:16:52.146Z,99.90
2019-04-07T00:19:21.968Z,99.90
2019-04-07T00:21:52.038Z,99.90
2019-04-07T00:24:21.927Z,99.90
2019-04-07T00:26:52.456Z,99.90
2019-04-07T00:29:22.818Z,99.90
2019-04-07T00:31:52.887Z,99.90
2019-04-07T00:34:22.671Z,99.90
2019-04-07T00:36:52.472Z,99.90
2019-04-07T00:39:22.417Z,99.90
2019-04-07T00:41:52.938Z,99.90
2019-04-07T00:44:23.538Z,99.90
2019-04-07T00:46:54.020Z,99.90
2019-04-07T00:49:24.636Z,99.90
2019-04-07T00:51:56.375Z,99.90
2019-04-07T00:54:26.134Z,99.90
2019-04-07T00:56:56.487Z,99.90
2019-04-07T00:59:26.722Z,99.90
2019-04-07T01:01:56.897Z,99.90
2019-04-07T01:04:27.594Z,99.90
2019-04-07T01:06:57.547Z,99.90
2019-04-07T01:09:27.842Z,99.90
2019-04-07T01:11:57.589Z,99.90
2019-04-07T01:14:27.838Z,99.90
2019-04-07T01:16:58.313Z,99.90
2019-04-07T01:19:28.848Z,99.90
2019-04-07T01:21:58.996Z,99.90
2019-04-07T01:24:28.999Z,99.90
2019-04-07T01:26:58.927Z,99.90
2019-04-07T01:29:28.683Z,99.90
2019-04-07T01:31:58.586Z,99.90
2019-04-07T01:34:28.905Z,99.90
2019-04-07T01:36:59.848Z,99.90
2019-04-07T01:39:30.671Z,99.90
2019-04-07T01:42:09.787Z,99.90
2019-04-07T01:44:57.495Z,99.90
2019-04-07T01:47:33.530Z,99.90
2019-04-07T01:50:21.162Z,99.90
2019-04-07T01:52:57.039Z,99.90
2019-04-07T01:55:55.605Z,99.90
2019-04-07T01:58:49.404Z,99.90
2019-04-07T02:01:31.342Z,99.90
2019-04-07T02:04:35.857Z,99.90
2019-04-07T02:07:37.422Z,99.90
2019-04-07T02:10:27.359Z,99.90
2019-04-07T02:13:22.839Z,99.90
2019-04-07T02:16:12.314Z,99.90
2019-04-07T02:18:54.298Z,99.90
2019-04-07T02:21:28.662Z,99.90
2019-04-07T02:24:17.173Z,99.90
2019-04-07T02:26:57.587Z,99.90
2019-04-07T02:29:44.677Z,99.90
2019-04-07T02:32:24.620Z,99.90
2019-04-07T02:35:03.536Z,99.90
2019-04-07T02:38:04.860Z,99.90
2019-04-07T02:40:42.756Z,99.90
2019-04-07T02:43:31.000Z,99.90
2019-04-07T02:46:13.031Z,99.90
2019-04-07T02:48:51.414Z,99.90
2019-04-07T02:51:29.763Z,99.90
2019-04-07T02:54:24.670Z,99.90
2019-04-07T02:57:12.057Z,99.90
2019-04-07T03:00:13.946Z,99.90
2019-04-07T03:03:04.838Z,99.90
2019-04-07T03:05:48.154Z,99.90
2019-04-07T03:08:52.618Z,99.90
2019-04-07T03:11:32.609Z,99.90
2019-04-07T03:14:31.580Z,99.90
2019-04-07T03:17:16.020Z,99.90
2019-04-07T03:19:54.212Z,99.90
2019-04-07T03:22:47.093Z,99.90
2019-04-07T03:25:35.518Z,99.90
2019-04-07T03:28:14.181Z,99.90
2019-04-07T03:31:22.471Z,99.90
2019-04-07T03:34:13.969Z,99.90
2019-04-07T03:37:27.002Z,99.90
2019-04-07T03:40:13.885Z,99.90
2019-04-07T03:42:57.392Z,99.90
2019-04-07T03:45:49.926Z,99.90
2019-04-07T03:48:33.377Z,99.90
2019-04-07T03:51:17.314Z,99.90
2019-04-07T03:54:07.201Z,99.90
2019-04-07T03:57:00.432Z,99.90
2019-04-07T04:00:04.351Z,99.90
2019-04-07T04:02:59.355Z,99.90
2019-04-07T04:05:52.002Z,99.90
2019-04-07T04:08:42.815Z,99.90
2019-04-07T04:11:34.617Z,99.90
2019-04-07T04:14:19.062Z,99.90
2019-04-07T04:16:51.066Z,99.90
2019-04-07T04:19:20.991Z,99.90
2019-04-07T04:21:51.081Z,99.90
2019-04-07T04:24:21.500Z,99.90
2019-04-07T04:26:51.974Z,99.90
2019-04-07T04:29:23.079Z,99.90
2019-04-07T04:31:53.155Z,99.90
2019-04-07T04:34:23.659Z,99.90
2019-04-07T04:36:54.517Z,99.90
2019-04-07T04:39:24.984Z,99.90
2019-04-07T04:41:55.667Z,99.90
2019-04-07T04:44:26.571Z,99.90
2019-04-07T04:46:56.496Z,99.90
2019-04-07T04:49:26.878Z,99.90
2019-04-07T04:51:57.210Z,99.90
2019-04-07T04:54:27.807Z,99.90
2019-04-07T04:56:57.768Z,99.90
2019-04-07T04:59:27.920Z,99.90
2019-04-07T05:01:57.882Z,99.90
2019-04-07T05:04:28.154Z,99.90
2019-04-07T05:06:58.069Z,99.90
2019-04-07T05:09:39.974Z,99.90
2019-04-07T05:11:59.640Z,99.90
2019-04-07T05:14:29.478Z,99.90
2019-04-07T05:16:59.490Z,99.90
2019-04-07T05:19:29.421Z,99.90
2019-04-07T05:21:59.873Z,99.90
2019-04-07T05:24:30.148Z,99.90
2019-04-07T05:26:59.983Z,99.90
2019-04-07T05:29:30.240Z,99.90
2019-04-07T05:32:00.173Z,99.90
2019-04-07T05:34:30.003Z,99.90
2019-04-07T05:36:59.857Z,99.90
2019-04-07T05:39:30.869Z,99.90
2019-04-07T05:42:01.311Z,99.90
2019-04-07T05:44:32.229Z,99.90
2019-04-07T05:47:02.842Z,99.90
2019-04-07T05:49:33.309Z,99.90
2019-04-07T05:52:05.665Z,99.90
2019-04-07T05:54:34.979Z,99.90
2019-04-07T05:57:05.459Z,99.90
2019-04-07T05:59:35.721Z,99.90
2019-04-07T06:02:06.828Z,99.90
2019-04-07T06:04:36.983Z,99.90
2019-04-07T06:07:07.109Z,99.90
2019-04-07T06:09:37.604Z,99.90
2019-04-07T06:12:09.825Z,99.90
2019-04-07T06:14:40.091Z,99.90
2019-04-07T06:17:10.006Z,99.90
2019-04-07T06:19:41.284Z,99.90
2019-04-07T06:22:12.214Z,99.90
2019-04-07T06:24:42.058Z,99.90
2019-04-07T06:27:13.796Z,99.90
2019-04-07T06:29:44.630Z,99.90
2019-04-07T06:32:14.551Z,99.90
2019-04-07T06:34:44.484Z,99.90
2019-04-07T06:37:15.379Z,99.90
2019-04-07T06:39:50.064Z,99.90
2019-04-07T06:42:17.581Z,99.90
2019-04-07T06:44:50.110Z,99.00
2019-04-07T06:47:25.156Z,98.50
2019-04-07T06:50:15.478Z,98.20
2019-04-07T06:53:18.579Z,99.30
2019-04-07T06:56:04.128Z,97.80
2019-04-07T06:58:52.446Z,97.40
2019-04-07T07:01:40.209Z,99.90
2019-04-07T07:04:25.403Z,99.90
2019-04-07T07:07:20.681Z,99.90
2019-04-07T07:10:06.581Z,99.90
2019-04-07T07:12:47.114Z,99.60
2019-04-07T07:15:24.688Z,99.90
2019-04-07T07:18:19.965Z,99.90
2019-04-07T07:21:11.087Z,99.90
2019-04-07T07:23:47.109Z,99.90
2019-04-07T07:26:14.078Z,99.90
2019-04-07T07:28:45.527Z,99.90
2019-04-07T07:31:15.645Z,99.90
2019-04-07T07:33:45.502Z,99.90
2019-04-07T07:36:17.984Z,99.90
2019-04-07T07:38:56.896Z,99.90
2019-04-07T07:41:21.139Z,99.90
2019-04-07T07:43:50.248Z,99.90
2019-04-07T07:46:21.819Z,98.80
2019-04-07T07:48:54.070Z,99.90
2019-04-07T07:51:25.730Z,98.30
2019-04-07T07:53:58.635Z,99.90
2019-04-07T07:56:27.446Z,99.30
2019-04-07T07:58:59.865Z,97.60
2019-04-07T08:01:29.896Z,97.10
2019-04-07T08:03:59.866Z,97.10
2019-04-07T08:06:30.504Z,98.80
2019-04-07T08:09:09.955Z,94.00
2019-04-07T08:11:34.446Z,92.40
2019-04-07T08:14:04.909Z,95.20
2019-04-07T08:16:35.623Z,91.00
2019-04-07T08:19:08.415Z,89.10
2019-04-07T08:21:38.041Z,85.90
2019-04-07T08:24:08.118Z,82.80
2019-04-07T08:26:38.410Z,83.10
2019-04-07T08:29:08.840Z,79.60
2019-04-07T08:31:40.348Z,79.60
2019-04-07T08:34:10.884Z,88.10
2019-04-07T08:36:43.463Z,90.60
2019-04-07T08:39:21.548Z,92.20
2019-04-07T08:41:45.188Z,88.60
2019-04-07T08:44:16.147Z,85.70
2019-04-07T08:46:45.970Z,83.60
2019-04-07T08:49:16.114Z,80.00
2019-04-07T08:51:46.339Z,77.80
2019-04-07T08:54:18.465Z,82.90
2019-04-07T08:56:50.289Z,83.40
2019-04-07T08:59:20.123Z,87.50
2019-04-07T09:01:52.789Z,79.20
2019-04-07T09:04:21.555Z,75.30
2019-04-07T09:06:51.335Z,64.80
2019-04-07T09:09:32.082Z,72.80
2019-04-07T09:11:54.978Z,74.40
2019-04-07T09:14:39.494Z,71.70
2019-04-07T09:17:30.990Z,72.90
2019-04-07T09:20:10.700Z,73.70
2019-04-07T09:23:06.587Z,73.40
2019-04-07T09:25:44.793Z,77.70
2019-04-07T09:31:44.434Z,76.20
2019-04-07T09:34:30.556Z,88.20
2019-04-07T09:37:22.033Z,90.30
2019-04-07T09:40:19.446Z,86.30
2019-04-07T09:43:11.161Z,85.80
2019-04-07T09:45:59.378Z,80.50
2019-04-07T09:48:55.229Z,81.50
2019-04-07T09:52:03.147Z,75.60
2019-04-07T09:54:54.632Z,69.90
2019-04-07T09:57:42.925Z,67.50
2019-04-07T10:01:20.758Z,66.50
2019-04-07T10:06:49.683Z,62.20
2019-04-07T10:09:47.534Z,59.90
2019-04-07T10:12:39.269Z,64.00
2019-04-07T10:15:26.285Z,68.80
2019-04-07T10:18:04.048Z,73.90
2019-04-07T10:20:44.315Z,80.50
2019-04-07T10:23:32.934Z,75.40
2019-04-07T10:26:27.922Z,81.00
2019-04-07T10:29:15.444Z,83.40
2019-04-07T10:32:04.605Z,83.40
2019-04-07T10:34:45.039Z,81.00
2019-04-07T10:37:25.451Z,88.10
2019-04-07T10:40:21.945Z,90.40
2019-04-07T10:43:03.165Z,85.30
2019-04-07T10:45:41.738Z,87.10
2019-04-07T10:48:24.300Z,91.00
2019-04-07T10:51:30.883Z,83.10
2019-04-07T10:54:26.701Z,82.20
2019-04-07T10:57:10.025Z,75.80
2019-04-07T10:59:57.832Z,72.40
2019-04-07T11:02:54.841Z,79.80
2019-04-07T11:05:58.197Z,80.20
2019-04-07T11:08:37.593Z,75.70
2019-04-07T11:11:30.387Z,85.00
2019-04-07T11:14:19.218Z,85.50
2019-04-07T11:17:20.468Z,82.60
2019-04-07T11:20:13.200Z,83.70
2019-04-07T11:23:08.509Z,90.50
2019-04-07T11:25:56.077Z,91.40
2019-04-07T11:28:42.240Z,91.80
2019-04-07T11:31:43.066Z,91.50
2019-04-07T11:34:37.854Z,92.30
2019-04-07T11:37:32.866Z,94.30
2019-04-07T11:40:12.837Z,93.50
2019-04-07T11:43:10.751Z,99.00
2019-04-07T11:45:56.459Z,98.70
2019-04-07T11:48:25.782Z,99.00
2019-04-07T11:51:03.987Z,97.20
2019-04-07T11:53:57.779Z,90.90
2019-04-07T11:56:52.370Z,87.90
2019-04-07T11:59:54.080Z,90.00
2019-04-07T12:02:44.258Z,90.60
2019-04-07T12:05:48.585Z,87.20
2019-04-07T12:08:40.565Z,84.70
2019-04-07T12:11:24.882Z,75.40
2019-04-07T12:14:15.055Z,79.20
2019-04-07T12:17:05.812Z,70.10
2019-04-07T12:19:54.927Z,67.60
2019-04-07T12:22:55.013Z,71.00
2019-04-07T12:25:50.437Z,69.60
2019-04-07T12:28:42.261Z,70.20
2019-04-07T12:31:37.536Z,81.50
2019-04-07T12:34:28.711Z,84.50
2019-04-07T12:37:16.238Z,76.10
2019-04-07T12:39:58.710Z,78.00
2019-04-07T12:42:39.554Z,74.40
2019-04-07T12:45:21.263Z,72.40
2019-04-07T12:48:30.661Z,68.60
2019-04-07T12:51:19.901Z,68.60
2019-04-07T12:54:09.482Z,67.70
2019-04-07T12:57:02.541Z,69.90
2019-04-07T12:59:51.740Z,75.90
2019-04-07T13:02:45.292Z,84.20
2019-04-07T13:05:41.071Z,78.70
2019-04-07T13:08:34.857Z,81.80
2019-04-07T13:11:25.474Z,65.20
2019-04-07T13:13:56.148Z,60.30
2019-04-07T13:17:00.193Z,55.00
2019-04-07T13:19:44.033Z,52.70
2019-04-07T13:22:35.485Z,57.10
2019-04-07T13:25:25.159Z,59.80
2019-04-07T13:28:15.180Z,68.40
2019-04-07T13:30:54.707Z,78.00
2019-04-07T13:33:34.912Z,78.70
2019-04-07T13:36:23.369Z,71.00
2019-04-07T13:39:07.058Z,68.90
2019-04-07T13:42:05.299Z,71.80
2019-04-07T13:44:45.708Z,66.30
2019-04-07T13:47:42.273Z,68.50
2019-04-07T13:50:34.101Z,69.30
2019-04-07T13:53:17.509Z,66.40
2019-04-07T13:56:01.742Z,69.90
2019-04-07T13:58:52.067Z,77.70
2019-04-07T14:01:37.053Z,75.40
2019-04-07T14:04:26.298Z,69.70
2019-04-07T14:07:10.154Z,65.10
2019-04-07T14:10:01.460Z,65.40
2019-04-07T14:12:49.091Z,63.80
2019-04-07T14:15:40.947Z,61.20
2019-04-07T14:18:36.711Z,58.00
2019-04-07T14:21:26.363Z,60.60
2019-04-07T14:24:10.120Z,61.60
2019-04-07T14:27:08.640Z,66.20
2019-04-07T14:30:14.080Z,63.40
2019-04-07T14:33:12.258Z,61.70
2019-04-07T14:36:00.903Z,60.90
2019-04-07T14:38:45.566Z,64.60
2019-04-07T14:41:33.269Z,69.90
2019-04-07T14:44:38.598Z,70.50
2019-04-07T14:47:28.435Z,70.50
2019-04-07T14:50:16.148Z,73.50
2019-04-07T14:53:08.151Z,68.40
2019-04-07T14:56:02.310Z,72.20
2019-04-07T14:58:45.395Z,71.30
2019-04-07T15:01:30.650Z,74.00
2019-04-07T15:04:01.103Z,79.70
2019-04-07T15:06:33.634Z,78.20
2019-04-07T15:09:17.624Z,79.60
2019-04-07T15:12:02.796Z,80.60
2019-04-07T15:14:33.809Z,79.00
2019-04-07T15:17:04.720Z,82.40
2019-04-07T15:19:35.164Z,84.80
2019-04-07T15:22:06.531Z,85.20
2019-04-07T15:24:37.656Z,86.80
2019-04-07T15:27:08.619Z,84.00
2019-04-07T15:29:42.127Z,81.40
2019-04-07T15:32:10.590Z,86.60
2019-04-07T15:34:42.553Z,86.70
2019-04-07T15:37:13.113Z,88.20
2019-04-07T15:39:44.433Z,85.10
2019-04-07T15:42:19.786Z,87.70
2019-04-07T15:44:46.287Z,90.60
2019-04-07T15:47:16.881Z,92.70
2019-04-07T15:49:51.240Z,93.90
2019-04-07T15:52:21.858Z,95.00
2019-04-07T15:54:53.719Z,95.10
2019-04-07T15:57:24.166Z,95.80
2019-04-07T15:59:56.193Z,93.30
2019-04-07T16:02:27.838Z,94.70
2019-04-07T16:05:02.182Z,93.60
2019-04-07T16:07:30.541Z,94.30
2019-04-07T16:10:00.547Z,95.40
2019-04-07T16:12:42.528Z,94.10
2019-04-07T16:15:04.135Z,94.40
2019-04-07T16:17:34.892Z,97.80
2019-04-07T16:20:06.761Z,95.20
2019-04-07T16:22:36.988Z,95.10
2019-04-07T16:25:08.337Z,94.60
2019-04-07T16:27:39.687Z,94.60
2019-04-07T16:30:11.264Z,93.70
2019-04-07T16:32:41.566Z,93.50
2019-04-07T16:35:14.940Z,93.10
2019-04-07T16:37:44.299Z,93.80
2019-04-07T16:40:17.101Z,93.50
2019-04-07T16:43:01.235Z,94.50
2019-04-07T16:45:19.788Z,95.70
2019-04-07T16:47:49.998Z,96.00
2019-04-07T16:50:21.443Z,97.20
2019-04-07T16:52:51.668Z,97.60
2019-04-07T16:55:37.333Z,98.90
2019-04-07T16:58:08.439Z,99.30
2019-04-07T17:00:39.750Z,99.70
2019-04-07T17:03:10.947Z,99.90
2019-04-07T17:05:41.416Z,99.90
2019-04-07T17:08:11.702Z,99.90
2019-04-07T17:10:41.950Z,99.90
2019-04-07T17:13:20.034Z,99.90
2019-04-07T17:15:46.023Z,99.90
2019-04-07T17:18:44.374Z,99.90
2019-04-07T17:21:16.525Z,99.90
2019-04-07T17:23:47.513Z,99.90
2019-04-07T17:26:18.253Z,99.90
2019-04-07T17:28:49.823Z,99.90
2019-04-07T17:31:20.837Z,99.90
2019-04-07T17:33:50.988Z,99.90
2019-04-07T17:36:23.021Z,99.90
2019-04-07T17:39:15.718Z,99.90
2019-04-07T17:41:48.314Z,99.90
2019-04-07T17:44:40.311Z,99.90
2019-04-07T17:47:22.043Z,99.90
2019-04-07T17:50:11.065Z,99.90
2019-04-07T17:53:01.348Z,99.90
2019-04-07T17:55:48.863Z,99.90
2019-04-07T17:58:39.533Z,99.90
2019-04-07T18:01:30.053Z,99.90
2019-04-07T18:04:19.436Z,99.90
2019-04-07T18:07:07.974Z,99.90
2019-04-07T18:09:51.339Z,99.90
2019-04-07T18:12:51.537Z,99.90
2019-04-07T18:15:31.568Z,99.90
2019-04-07T18:18:30.388Z,99.90
2019-04-07T18:21:24.145Z,99.90
2019-04-07T18:24:03.578Z,99.90
2019-04-07T18:26:45.108Z,99.90
2019-04-07T18:29:29.423Z,99.90
2019-04-07T18:32:16.612Z,99.90
2019-04-07T18:35:06.406Z,99.90
2019-04-07T18:37:46.289Z,99.90
2019-04-07T18:40:33.578Z,99.90
2019-04-07T18:43:22.005Z,99.90
2019-04-07T18:46:16.848Z,99.90
2019-04-07T18:48:54.383Z,99.90
2019-04-07T18:51:47.174Z,99.90
2019-04-07T18:54:39.978Z,99.90
2019-04-07T18:57:35.981Z,99.90
2019-04-07T19:00:30.177Z,99.90
2019-04-07T19:03:18.519Z,99.90
2019-04-07T19:06:16.705Z,99.90
2019-04-07T19:09:01.332Z,99.90
2019-04-07T19:12:04.430Z,99.90
2019-04-07T19:14:46.028Z,99.90
2019-04-07T19:17:34.796Z,99.90
2019-04-07T19:20:26.481Z,99.90
2019-04-07T19:23:16.356Z,99.90
2019-04-07T19:26:16.386Z,99.90
2019-04-07T19:28:56.194Z,99.90
2019-04-07T19:31:48.111Z,99.90
2019-04-07T19:34:31.777Z,99.90
2019-04-07T19:37:22.471Z,99.90
2019-04-07T19:40:23.525Z,99.90
2019-04-07T19:43:11.379Z,99.90
2019-04-07T19:45:58.525Z,99.90
2019-04-07T19:48:52.174Z,99.90
2019-04-07T19:52:02.385Z,99.90
2019-04-07T19:54:39.889Z,99.90
2019-04-07T19:57:29.922Z,99.90
2019-04-07T20:00:13.100Z,99.90
2019-04-07T20:03:11.422Z,99.90
2019-04-07T20:05:59.058Z,99.90
2019-04-07T20:08:39.571Z,99.90
2019-04-07T20:11:31.728Z,99.90
2019-04-07T20:14:19.789Z,99.90
2019-04-07T20:17:06.195Z,99.90
2019-04-07T20:19:53.866Z,99.90
2019-04-07T20:22:47.232Z,99.90
2019-04-07T20:25:32.039Z,99.90
2019-04-07T20:28:20.894Z,99.90
2019-04-07T20:31:09.271Z,99.90
2019-04-07T20:33:46.911Z,99.90
2019-04-07T20:36:26.544Z,99.90
2019-04-07T20:39:07.212Z,99.90
2019-04-07T20:42:15.926Z,99.90
2019-04-07T20:45:04.243Z,99.90
2019-04-07T20:47:54.510Z,99.90
2019-04-07T20:50:43.650Z,99.90
2019-04-07T20:53:39.266Z,99.90
2019-04-07T20:56:33.202Z,99.90
2019-04-07T20:59:49.508Z,99.90
2019-04-07T21:02:32.338Z,99.90
2019-04-07T21:05:35.653Z,99.90
2019-04-07T21:08:18.060Z,99.90
2019-04-07T21:11:15.795Z,99.90
2019-04-07T21:14:04.983Z,99.90
2019-04-07T21:16:53.049Z,99.90
2019-04-07T21:19:45.578Z,99.90
2019-04-07T21:22:37.265Z,99.90
2019-04-07T21:25:32.106Z,99.90
2019-04-07T21:28:09.263Z,99.90
2019-04-07T21:31:01.315Z,99.90
2019-04-07T21:33:44.787Z,99.90
2019-04-07T21:36:46.353Z,99.90
2019-04-07T21:39:34.975Z,99.90
2019-04-07T21:42:36.063Z,99.90
2019-04-07T21:45:37.536Z,99.90
2019-04-07T21:48:16.662Z,99.90
2019-04-07T21:51:04.453Z,99.90
2019-04-07T21:53:53.419Z,99.90
2019-04-07T21:56:43.169Z,99.90
2019-04-07T21:59:35.679Z,99.90
2019-04-07T22:02:27.670Z,99.90
2019-04-07T22:05:18.259Z,99.90
2019-04-07T22:08:10.873Z,99.90
2019-04-07T22:10:38.127Z,99.90
2019-04-07T22:13:09.260Z,99.90
2019-04-07T22:15:45.951Z,99.90
2019-04-07T22:18:11.718Z,99.90
2019-04-07T22:20:41.486Z,99.90
2019-04-07T22:23:11.323Z,99.90
2019-04-07T22:25:50.793Z,99.90
2019-04-07T22:28:20.858Z,99.90
2019-04-07T22:30:52.119Z,99.90
2019-04-07T22:33:25.307Z,99.90
2019-04-07T22:35:53.639Z,99.90
2019-04-07T22:38:23.921Z,99.90
2019-04-07T22:40:54.282Z,99.90
2019-04-07T22:43:25.009Z,99.90
2019-04-07T22:46:07.215Z,99.90
2019-04-07T22:48:28.029Z,99.90
2019-04-07T22:50:58.835Z,99.90
2019-04-07T22:53:31.238Z,99.90
2019-04-07T22:56:00.555Z,99.90
2019-04-07T22:58:30.391Z,99.90
2019-04-07T23:01:00.683Z,99.90
2019-04-07T23:03:31.350Z,99.90
2019-04-07T23:06:01.530Z,99.90
2019-04-07T23:08:31.362Z,99.90
2019-04-07T23:11:02.164Z,99.90
2019-04-07T23:13:32.184Z,99.90
2019-04-07T23:16:10.814Z,99.90
2019-04-07T23:18:33.515Z,99.90
2019-04-07T23:21:03.370Z,99.90
2019-04-07T23:23:34.380Z,99.90
2019-04-07T23:26:05.362Z,99.90
2019-04-07T23:28:36.344Z,99.90
2019-04-07T23:31:06.341Z,99.90
2019-04-07T23:33:36.177Z,99.90
2019-04-07T23:36:06.094Z,99.90
2019-04-07T23:38:36.895Z,99.90
2019-04-07T23:41:06.923Z,99.90
2019-04-07T23:43:37.611Z,99.90
2019-04-07T23:46:18.781Z,99.90
2019-04-07T23:48:40.206Z,99.90
2019-04-07T23:51:10.287Z,99.90
2019-04-07T23:54:10.967Z,99.90
2019-04-07T23:56:41.938Z,99.90
2019-04-07T23:59:12.042Z,99.90
